Owo View — VRBZ8 — position and weather

sailwx.info

Track history (hours):
 
Tides and Currents Weather Stations Pressure Air Temp Water Temp Dewpoint Dewpoint Depression Visibility Wind Speed Wind Dir Waves Ship Positions

Owo View

Last reported at 2018-Apr-24 12:28 UTC. Time now 2018-Apr-24 12:39 UTC.
Position N 35°34' E 139°52'.

Length 143 m; draft 8 m.

Type: Cargo ship. MMSI: 477364240.

Date/timePositionNaut miles runAvg speedWind from/ knotsBaromVisibWave heightAir tempDewpointWater temp
2018-Apr-24 12:28N 35°34' E 139°52'0 0.0
2018-Apr-24 11:52N 35°34' E 139°52'0 0.0
2018-Apr-24 11:28N 35°34' E 139°52'0 0.1
2018-Apr-24 10:55N 35°34' E 139°52'0 0.0
2018-Apr-24 10:28N 35°34' E 139°52'0 0.0
2018-Apr-24 09:58N 35°34' E 139°52'0 0.1
2018-Apr-24 09:28N 35°34' E 139°52'0 0.0
2018-Apr-24 08:58N 35°34' E 139°52'0 0.0
2018-Apr-24 08:25N 35°34' E 139°52'0 0.0
2018-Apr-24 07:55N 35°34' E 139°52'0 0.0
2018-Apr-24 07:22N 35°34' E 139°52'0 0.0
2018-Apr-24 06:52N 35°34' E 139°52'0 0.0
2018-Apr-24 06:28N 35°34' E 139°52'0 0.0
2018-Apr-24 05:49N 35°34' E 139°52'0 0.0
2018-Apr-24 05:25N 35°34' E 139°52'0 0.0
2018-Apr-24 04:58N 35°34' E 139°52'0 0.0
2018-Apr-24 04:25N 35°34' E 139°52'0 0.0
2018-Apr-24 03:58N 35°34' E 139°52'0 0.0
2018-Apr-24 03:28N 35°34' E 139°52'0 0.0
2018-Apr-24 02:58N 35°34' E 139°52'0 0.0
2018-Apr-24 02:28N 35°34' E 139°52'0 0.1
2018-Apr-24 01:55N 35°34' E 139°52'0 0.1
2018-Apr-24 01:25N 35°34' E 139°52'0 0.0
2018-Apr-24 00:55N 35°34' E 139°52'0 0.0
2018-Apr-24 00:28N 35°34' E 139°52'0 0.0
2018-Apr-23 23:55N 35°34' E 139°52'0 0.0
2018-Apr-23 23:25N 35°34' E 139°52'0 0.1
2018-Apr-23 22:55N 35°34' E 139°52'0 0.0
2018-Apr-23 22:28N 35°34' E 139°52'0 0.0
2018-Apr-23 21:52N 35°34' E 139°52'0 0.1
2018-Apr-23 21:22N 35°34' E 139°51'0 0.0
2018-Apr-23 20:58N 35°34' E 139°51'0 0.1
2018-Apr-23 20:25N 35°34' E 139°52'0 0.0
2018-Apr-23 19:58N 35°34' E 139°52'0 0.0
2018-Apr-23 19:28N 35°34' E 139°52'0 0.0
2018-Apr-23 18:55N 35°34' E 139°52'0 0.0
2018-Apr-23 18:28N 35°34' E 139°52'0 0.0
2018-Apr-23 17:55N 35°34' E 139°52'0 0.1
2018-Apr-23 17:28N 35°34' E 139°52'0 0.1
2018-Apr-23 16:49N 35°34' E 139°52'0 0.0
2018-Apr-23 16:28N 35°34' E 139°52'0 0.0
2018-Apr-23 15:58N 35°34' E 139°52'0 0.1
2018-Apr-23 15:25N 35°34' E 139°51'0 0.0
2018-Apr-23 14:58N 35°34' E 139°51'0 0.0
2018-Apr-23 14:28N 35°34' E 139°51'0 0.0
2018-Apr-23 13:53N 35°34' E 139°51'0 0.4
2018-Apr-23 13:30N 35°34' E 139°51'4 7.8
2018-Apr-23 13:00N 35°31' E 139°53'713.2
2018-Apr-23 12:30N 35°26' E 139°48'510.3
2018-Apr-23 12:01N 35°27' E 139°41'1 1.4
2018-Apr-23 11:30N 35°26' E 139°41'0 0.0
2018-Apr-23 11:00N 35°26' E 139°41'0 0.0
2018-Apr-23 10:29N 35°26' E 139°41'0 0.0
2018-Apr-23 09:59N 35°26' E 139°41'0 0.0
2018-Apr-23 09:29N 35°26' E 139°41'0 0.0
2018-Apr-23 08:56N 35°26' E 139°41'0 0.0
2018-Apr-23 08:29N 35°26' E 139°41'0 0.0
2018-Apr-23 07:59N 35°26' E 139°41'0 0.0
2018-Apr-23 07:26N 35°26' E 139°41'0 0.0
2018-Apr-23 06:59N 35°26' E 139°41'0 0.0
2018-Apr-23 06:29N 35°26' E 139°41'0 0.0
2018-Apr-23 05:59N 35°26' E 139°41'0 0.0
2018-Apr-23 05:29N 35°26' E 139°41'0 0.0
2018-Apr-23 04:59N 35°26' E 139°41'0 0.0
2018-Apr-23 04:29N 35°26' E 139°41'1 1.0
2018-Apr-23 04:00N 35°27' E 139°41'2 4.0
2018-Apr-23 03:30N 35°25' E 139°42'1 1.6
2018-Apr-23 03:00N 35°24' E 139°42'4 7.3
2018-Apr-23 02:30N 35°20' E 139°43'510.6
2018-Apr-23 02:00N 35°16' E 139°46'611.6
2018-Apr-23 01:30N 35°10' E 139°47'511.0
2018-Apr-23 01:00N 35°05' E 139°45'611.7
2018-Apr-23 00:30N 35°02' E 139°39'612.9
2018-Apr-23 00:00N 35°02' E 139°31'611.1
2018-Apr-22 23:30N 35°01' E 139°24'2 4.8
2018-Apr-22 23:00N 35°00' E 139°21'1 1.1
2018-Apr-22 22:30N 35°01' E 139°22'1 1.3
2018-Apr-22 22:00N 35°01' E 139°22'1 1.4
2018-Apr-22 21:30N 35°02' E 139°23'1 1.4
2018-Apr-22 21:00N 35°02' E 139°24'0 0.9
2018-Apr-22 20:30N 35°02' E 139°24'1 2.9
2018-Apr-22 20:00N 35°01' E 139°24'611.4
2018-Apr-22 19:30N 34°56' E 139°22'1014.9
2018-Apr-22 18:50N 34°47' E 139°16'915.8
2018-Apr-22 18:17N 34°40' E 139°09'515.7
2018-Apr-22 17:56N 34°37' E 139°04'715.6
2018-Apr-22 17:30N 34°32' E 138°58'1014.9
2018-Apr-22 16:52N 34°31' E 138°47'614.3
2018-Apr-22 16:29N 34°32' E 138°40'714.2
2018-Apr-22 16:00N 34°32' E 138°32'714.0
2018-Apr-22 15:29N 34°32' E 138°23'713.8
2018-Apr-22 14:57N 34°31' E 138°14'714.6
2018-Apr-22 14:30N 34°31' E 138°06'814.5
2018-Apr-22 13:58N 34°31' E 137°57'714.8
2018-Apr-22 13:29N 34°31' E 137°48'714.5
2018-Apr-22 13:00N 34°31' E 137°40'714.1
2018-Apr-22 12:29N 34°31' E 137°31'714.6
2018-Apr-22 11:59N 34°31' E 137°22'914.6
2018-Apr-22 11:21N 34°31' E 137°11'514.3
2018-Apr-22 11:00N 34°32' E 137°05'611.6
2018-Apr-22 10:28N 34°35' E 136°58'611.7
2018-Apr-22 09:58N 34°38' E 136°53'613.1
2018-Apr-22 09:30N 34°43' E 136°48'613.3
2018-Apr-22 09:00N 34°50' E 136°46'713.5
2018-Apr-22 08:30N 34°56' E 136°46'510.9
2018-Apr-22 08:00N 35°01' E 136°48'0 0.5
2018-Apr-22 07:30N 35°02' E 136°48'0 0.0
2018-Apr-22 06:56N 35°02' E 136°48'0 0.0
2018-Apr-22 06:26N 35°01' E 136°48'0 0.0
2018-Apr-22 05:56N 35°02' E 136°48'0 0.0
2018-Apr-22 05:26N 35°02' E 136°48'0 0.0
2018-Apr-22 04:56N 35°02' E 136°48'0 0.0
2018-Apr-22 04:26N 35°02' E 136°48'0 0.4
2018-Apr-22 04:00N 35°01' E 136°48'2 3.6
2018-Apr-22 03:30N 34°60' E 136°47'612.5
2018-Apr-22 03:01N 34°53' E 136°46'612.0
2018-Apr-22 02:30N 34°47' E 136°47'612.0
2018-Apr-22 02:00N 34°42' E 136°50'612.0
2018-Apr-22 01:29N 34°38' E 136°55'612.2
2018-Apr-22 01:00N 34°34' E 137°00'612.5
2018-Apr-22 00:29N 34°27' E 137°02'1115.3
2018-Apr-21 23:47N 34°17' E 137°00'515.9
2018-Apr-21 23:28N 34°12' E 136°58'716.0
2018-Apr-21 23:00N 34°06' E 136°52'815.6
2018-Apr-21 22:30N 34°01' E 136°45'815.6
2018-Apr-21 21:59N 33°56' E 136°38'815.7
2018-Apr-21 21:30N 33°51' E 136°31'916.0
2018-Apr-21 20:57N 33°45' E 136°23'5115.4
2018-Apr-21 17:40N 33°13' E 135°36'515.7
2018-Apr-21 17:22N 33°11' E 135°31'615.6
2018-Apr-21 16:57N 33°08' E 135°24'815.8
2018-Apr-21 16:26N 33°04' E 135°16'1517.3
2018-Apr-21 15:35N 32°56' E 135°01'318.9
2018-Apr-21 15:27N 32°55' E 134°58'919.3
2018-Apr-21 14:57N 32°50' E 134°48'919.5
2018-Apr-21 14:29N 32°45' E 134°39'46015.8
2018-Apr-20 09:28N 31°00' E 125°52'816.7
2018-Apr-20 08:58N 31°01' E 125°42'817.0
2018-Apr-20 08:28N 31°01' E 125°33'15516.0
2018-Apr-19 22:49N 31°05' E 122°32'1413.7
2018-Apr-19 21:48N 31°07' E 122°16'1119.7
2018-Apr-19 21:14N 31°14' E 122°05'4 7.3
2018-Apr-19 20:38N 31°15' E 122°00'214.5
2018-Apr-19 20:29N 31°15' E 121°58'714.3
2018-Apr-19 19:59N 31°17' E 121°50'1510.5
2018-Apr-19 18:35N 31°23' E 121°34'1 9.8
2018-Apr-19 18:30N 31°24' E 121°33'5 8.6
2018-Apr-19 17:58N 31°26' E 121°29'610.8
2018-Apr-19 17:25N 31°31' E 121°24'3 7.7
2018-Apr-19 17:00N 31°32' E 121°21'611.6
2018-Apr-19 16:31N 31°37' E 121°16'3 5.6
2018-Apr-19 16:00N 31°38' E 121°14'0 0.0
2018-Apr-19 15:28N 31°38' E 121°14'0 0.0
2018-Apr-19 14:58N 31°38' E 121°14'0 0.0
2018-Apr-19 14:28N 31°38' E 121°14'0 0.0
2018-Apr-19 13:58N 31°38' E 121°14'0 0.0
2018-Apr-19 13:25N 31°38' E 121°14'0 0.0
2018-Apr-19 12:58N 31°38' E 121°14'0 0.0
2018-Apr-19 12:28N 31°38' E 121°14'0 0.0
2018-Apr-19 11:58N 31°38' E 121°14'0 0.0
2018-Apr-19 11:28N 31°38' E 121°14'0 0.0
2018-Apr-19 10:58N 31°38' E 121°14'0 0.0
2018-Apr-19 10:25N 31°38' E 121°14'0 0.0
2018-Apr-19 09:58N 31°38' E 121°14'0 0.0
2018-Apr-19 09:28N 31°38' E 121°14'0 0.0
2018-Apr-19 08:58N 31°38' E 121°14'0 0.0
2018-Apr-19 08:28N 31°38' E 121°14'0 0.0
2018-Apr-19 07:58N 31°38' E 121°14'0 0.0
2018-Apr-19 07:28N 31°38' E 121°14'0 0.0
2018-Apr-19 06:58N 31°38' E 121°14'0 0.0
2018-Apr-19 06:28N 31°38' E 121°14'0 0.0
2018-Apr-19 05:58N 31°38' E 121°14'0 0.0
2018-Apr-19 05:28N 31°38' E 121°14'0 0.0
2018-Apr-19 04:58N 31°38' E 121°14'0 0.0
2018-Apr-19 04:28N 31°38' E 121°14'0 0.0
2018-Apr-19 03:58N 31°38' E 121°14'0 0.0
2018-Apr-19 03:28N 31°38' E 121°14'0 0.0
2018-Apr-19 02:58N 31°38' E 121°14'0 0.0
2018-Apr-19 02:28N 31°38' E 121°14'0 0.0
2018-Apr-19 01:58N 31°38' E 121°14'0 0.0
2018-Apr-19 01:28N 31°38' E 121°14'0 0.0
2018-Apr-19 00:58N 31°38' E 121°14'0 0.0
2018-Apr-19 00:28N 31°38' E 121°14'0 0.0
2018-Apr-18 23:58N 31°38' E 121°14'0 0.0
2018-Apr-18 23:28N 31°38' E 121°14'0 0.0
2018-Apr-18 22:58N 31°38' E 121°14'0 0.0
2018-Apr-18 22:28N 31°38' E 121°14'0 0.0
2018-Apr-18 21:58N 31°38' E 121°14'0 0.0
2018-Apr-18 21:28N 31°38' E 121°14'0 0.0
2018-Apr-18 20:58N 31°38' E 121°14'1 2.7
2018-Apr-18 20:28N 31°38' E 121°15'0 0.2
2018-Apr-18 20:00N 31°38' E 121°15'2 3.2
2018-Apr-18 19:30N 31°37' E 121°16'713.2
2018-Apr-18 19:00N 31°32' E 121°22'611.9
2018-Apr-18 18:30N 31°28' E 121°27'510.6
2018-Apr-18 18:00N 31°25' E 121°32'510.1
2018-Apr-18 17:29N 31°22' E 121°37'910.9
2018-Apr-18 16:39N 31°16' E 121°45'214.0
2018-Apr-18 16:29N 31°15' E 121°47'814.5
2018-Apr-18 15:58N 31°09' E 121°53'713.4
2018-Apr-18 15:25N 31°05' E 122°00'410.9
2018-Apr-18 15:00N 31°04' E 122°05'510.6
2018-Apr-18 14:30N 31°03' E 122°11'4 8.3
2018-Apr-18 14:00N 31°03' E 122°16'4 7.8
2018-Apr-18 13:30N 31°02' E 122°21'3 7.0
2018-Apr-18 13:00N 31°01' E 122°25'814.8
2018-Apr-18 12:29N 30°60' E 122°34'3 6.8
2018-Apr-18 12:00N 30°59' E 122°37'611.8
2018-Apr-18 11:28N 30°57' E 122°45'612.4
2018-Apr-18 10:59N 30°59' E 122°51'714.1
2018-Apr-18 10:28N 31°03' E 122°58'714.6
2018-Apr-18 10:00N 31°06' E 123°05'714.2
2018-Apr-18 09:30N 31°09' E 123°13'1014.3
2018-Apr-18 08:50N 31°15' E 123°22'412.3
2018-Apr-18 08:30N 31°16' E 123°26'713.0
2018-Apr-18 08:00N 31°19' E 123°33'813.3
2018-Apr-18 07:26N 31°22' E 123°41'2513.0
2018-Apr-18 05:32N 31°34' E 124°07'112.7
2018-Apr-18 05:26N 31°34' E 124°08'1113.3
2018-Apr-18 04:35N 31°38' E 124°21'413.6
2018-Apr-18 04:16N 31°40' E 124°25'414.0
2018-Apr-18 04:00N 31°41' E 124°29'714.5
2018-Apr-18 03:30N 31°44' E 124°37'816.0
2018-Apr-18 03:00N 31°47' E 124°46'27315.9
2018-Apr-17 09:47N 33°55' E 129°34'1016.5
2018-Apr-17 09:10N 33°56' E 129°45'816.6
2018-Apr-17 08:42N 33°57' E 129°55'316.4
2018-Apr-17 08:30N 33°57' E 129°59'816.5
2018-Apr-17 08:00N 33°59' E 130°09'816.2
2018-Apr-17 07:31N 33°60' E 130°18'815.8
2018-Apr-17 07:00N 34°01' E 130°28'815.5
2018-Apr-17 06:31N 34°02' E 130°37'815.8
2018-Apr-17 06:00N 34°02' E 130°47'613.1
2018-Apr-17 05:30N 33°58' E 130°53'4 7.9
2018-Apr-17 05:00N 33°55' E 130°56'510.9
2018-Apr-17 04:30N 33°59' E 131°01'714.5
2018-Apr-17 04:00N 33°54' E 131°08'714.4
2018-Apr-17 03:30N 33°51' E 131°16'815.0
2018-Apr-17 03:00N 33°50' E 131°24'815.1
2018-Apr-17 02:30N 33°48' E 131°33'815.1
2018-Apr-17 02:00N 33°46' E 131°42'815.4
2018-Apr-17 01:31N 33°45' E 131°51'815.7
2018-Apr-17 01:00N 33°43' E 132°00'815.3
2018-Apr-17 00:30N 33°43' E 132°10'815.7
2018-Apr-17 00:00N 33°45' E 132°19'915.4
2018-Apr-16 23:27N 33°48' E 132°28'714.9
2018-Apr-16 23:01N 33°52' E 132°35'714.6
2018-Apr-16 22:31N 33°57' E 132°41'815.0
2018-Apr-16 22:00N 34°03' E 132°47'6314.1
2018-Apr-16 17:30N 34°25' E 133°59'712.9
2018-Apr-16 16:59N 34°27' E 134°07'713.9
2018-Apr-16 16:30N 34°24' E 134°14'714.9
2018-Apr-16 16:00N 34°25' E 134°23'816.1
2018-Apr-16 15:30N 34°28' E 134°32'816.1
2018-Apr-16 15:00N 34°31' E 134°41'816.7
2018-Apr-16 14:30N 34°35' E 134°50'816.5
2018-Apr-16 14:00N 34°38' E 134°60'816.2
2018-Apr-16 13:30N 34°36' E 135°09'815.8
2018-Apr-16 13:00N 34°36' E 135°19'510.3
2018-Apr-16 12:30N 34°39' E 135°24'0 0.3
2018-Apr-16 12:00N 34°39' E 135°24'0 0.0
2018-Apr-16 11:26N 34°39' E 135°24'0 0.0
2018-Apr-16 10:56N 34°39' E 135°24'0 0.0
2018-Apr-16 10:29N 34°39' E 135°24'0 0.0
2018-Apr-16 09:59N 34°39' E 135°24'0 0.0
2018-Apr-16 09:29N 34°39' E 135°24'0 0.0
2018-Apr-16 08:56N 34°39' E 135°24'0 0.0
2018-Apr-16 08:29N 34°39' E 135°24'0 0.0
2018-Apr-16 07:59N 34°39' E 135°24'0 0.0
2018-Apr-16 07:29N 34°39' E 135°24'0 0.1
2018-Apr-16 07:01N 34°39' E 135°24'3 5.3
2018-Apr-16 06:30N 34°37' E 135°22'5 9.8
2018-Apr-16 06:00N 34°39' E 135°16'1 2.7
2018-Apr-16 05:30N 34°39' E 135°15'0 0.0
2018-Apr-16 05:00N 34°39' E 135°15'0 0.0
2018-Apr-16 04:30N 34°39' E 135°15'0 0.0
2018-Apr-16 04:00N 34°39' E 135°15'0 0.0
2018-Apr-16 03:30N 34°39' E 135°15'0 0.0
2018-Apr-16 03:00N 34°39' E 135°15'0 0.0
2018-Apr-16 02:30N 34°39' E 135°15'0 0.0
2018-Apr-16 02:00N 34°39' E 135°15'1 1.2
2018-Apr-16 01:30N 34°39' E 135°15'4 8.1
2018-Apr-16 01:01N 34°35' E 135°15'815.5
2018-Apr-16 00:30N 34°29' E 135°10'815.8
2018-Apr-16 00:00N 34°23' E 135°04'815.7
2018-Apr-15 23:30N 34°16' E 134°59'815.6
2018-Apr-15 23:01N 34°08' E 134°59'815.7
2018-Apr-15 22:30N 34°00' E 134°59'815.3
2018-Apr-15 22:01N 33°52' E 134°59'815.0
2018-Apr-15 21:29N 33°46' E 135°05'2215.2
2018-Apr-15 20:04N 33°31' E 135°24'4713.5
2018-Apr-15 16:32N 33°44' E 136°19'116.7
2018-Apr-15 16:30N 33°44' E 136°19'816.3
2018-Apr-15 16:00N 33°50' E 136°27'916.2
2018-Apr-15 15:27N 33°56' E 136°34'816.1
2018-Apr-15 14:58N 34°01' E 136°41'715.7
2018-Apr-15 14:30N 34°06' E 136°48'1515.0
2018-Apr-15 13:31N 34°17' E 137°00'015.7
2018-Apr-15 13:30N 34°17' E 137°00'1116.2
2018-Apr-15 12:50N 34°27' E 137°02'1214.1
2018-Apr-15 12:00N 34°37' E 136°54'816.7
2018-Apr-15 11:30N 34°43' E 136°48'816.7
2018-Apr-15 11:00N 34°52' E 136°46'815.6
2018-Apr-15 10:30N 34°59' E 136°47'2 4.6
2018-Apr-15 10:00N 35°02' E 136°47'0 0.0
2018-Apr-15 09:30N 35°02' E 136°47'0 0.0
2018-Apr-15 08:58N 35°02' E 136°47'0 0.0
2018-Apr-15 08:25N 35°02' E 136°47'0 0.0
2018-Apr-15 07:55N 35°02' E 136°47'0 0.0
2018-Apr-15 07:25N 35°02' E 136°47'0 0.0
2018-Apr-15 06:55N 35°02' E 136°47'0 0.0
2018-Apr-15 06:28N 35°02' E 136°47'0 0.0
2018-Apr-15 05:55N 35°02' E 136°47'0 0.0
2018-Apr-15 05:13N 35°02' E 136°47'0 0.0
2018-Apr-15 04:55N 35°02' E 136°47'0 0.0
2018-Apr-15 04:25N 35°02' E 136°47'0 0.0
2018-Apr-15 03:57N 35°02' E 136°47'1 1.3
2018-Apr-15 03:30N 35°01' E 136°48'3 5.1
2018-Apr-15 03:00N 34°59' E 136°47'612.2
2018-Apr-15 02:30N 34°53' E 136°47'714.2
2018-Apr-15 02:00N 34°46' E 136°48'714.0
2018-Apr-15 01:30N 34°40' E 136°52'713.3
2018-Apr-15 01:00N 34°35' E 136°58'611.6
2018-Apr-15 00:30N 34°32' E 137°04'510.4
2018-Apr-15 00:00N 34°28' E 137°08'611.3
2018-Apr-14 23:29N 34°30' E 137°14'611.0
2018-Apr-14 22:58N 34°32' E 137°20'16 6.0
2018-Apr-14 20:23N 34°30' E 137°39'410.3
2018-Apr-14 19:59N 34°30' E 137°44'610.5
2018-Apr-14 19:26N 34°32' E 137°51'511.3
2018-Apr-14 19:00N 34°32' E 137°57'612.3
2018-Apr-14 18:30N 34°32' E 138°04'812.3
2018-Apr-14 17:51N 34°32' E 138°14'513.4
2018-Apr-14 17:29N 34°32' E 138°20'613.6
2018-Apr-14 17:00N 34°32' E 138°28'713.7
2018-Apr-14 16:30N 34°32' E 138°36'813.5
2018-Apr-14 15:56N 34°32' E 138°45'613.7
2018-Apr-14 15:30N 34°32' E 138°52'713.5
2018-Apr-14 15:00N 34°35' E 139°00'714.4
2018-Apr-14 14:29N 34°40' E 139°06'713.9
2018-Apr-14 14:00N 34°45' E 139°12'813.8
2018-Apr-14 13:27N 34°50' E 139°18'613.5
2018-Apr-14 12:59N 34°55' E 139°24'713.7
2018-Apr-14 12:30N 34°59' E 139°30'  
Track history (hours):
 
Tides and Currents Weather Stations Pressure Air Temp Water Temp Dewpoint Dewpoint Depression Visibility Wind Speed Wind Dir Waves Ship Positions

Owo View

Last reported at 2018-Apr-24 12:28 UTC. Time now 2018-Apr-24 12:39 UTC.
Position N 35°34' E 139°52'.

Length 143 m; draft 8 m.

Type: Cargo ship. MMSI: 477364240.

Date/timePositionNaut miles runAvg speedWind from/ knotsBaromVisibWave heightAir tempDewpointWater temp
2018-Apr-24 12:28N 35°34' E 139°52'0 0.0
2018-Apr-24 11:52N 35°34' E 139°52'0 0.0
2018-Apr-24 11:28N 35°34' E 139°52'0 0.1
2018-Apr-24 10:55N 35°34' E 139°52'0 0.0
2018-Apr-24 10:28N 35°34' E 139°52'0 0.0
2018-Apr-24 09:58N 35°34' E 139°52'0 0.1
2018-Apr-24 09:28N 35°34' E 139°52'0 0.0
2018-Apr-24 08:58N 35°34' E 139°52'0 0.0
2018-Apr-24 08:25N 35°34' E 139°52'0 0.0
2018-Apr-24 07:55N 35°34' E 139°52'0 0.0
2018-Apr-24 07:22N 35°34' E 139°52'0 0.0
2018-Apr-24 06:52N 35°34' E 139°52'0 0.0
2018-Apr-24 06:28N 35°34' E 139°52'0 0.0
2018-Apr-24 05:49N 35°34' E 139°52'0 0.0
2018-Apr-24 05:25N 35°34' E 139°52'0 0.0
2018-Apr-24 04:58N 35°34' E 139°52'0 0.0
2018-Apr-24 04:25N 35°34' E 139°52'0 0.0
2018-Apr-24 03:58N 35°34' E 139°52'0 0.0
2018-Apr-24 03:28N 35°34' E 139°52'0 0.0
2018-Apr-24 02:58N 35°34' E 139°52'0 0.0
2018-Apr-24 02:28N 35°34' E 139°52'0 0.1
2018-Apr-24 01:55N 35°34' E 139°52'0 0.1
2018-Apr-24 01:25N 35°34' E 139°52'0 0.0
2018-Apr-24 00:55N 35°34' E 139°52'0 0.0
2018-Apr-24 00:28N 35°34' E 139°52'0 0.0
2018-Apr-23 23:55N 35°34' E 139°52'0 0.0
2018-Apr-23 23:25N 35°34' E 139°52'0 0.1
2018-Apr-23 22:55N 35°34' E 139°52'0 0.0
2018-Apr-23 22:28N 35°34' E 139°52'0 0.0
2018-Apr-23 21:52N 35°34' E 139°52'0 0.1
2018-Apr-23 21:22N 35°34' E 139°51'0 0.0
2018-Apr-23 20:58N 35°34' E 139°51'0 0.1
2018-Apr-23 20:25N 35°34' E 139°52'0 0.0
2018-Apr-23 19:58N 35°34' E 139°52'0 0.0
2018-Apr-23 19:28N 35°34' E 139°52'0 0.0
2018-Apr-23 18:55N 35°34' E 139°52'0 0.0
2018-Apr-23 18:28N 35°34' E 139°52'0 0.0
2018-Apr-23 17:55N 35°34' E 139°52'0 0.1
2018-Apr-23 17:28N 35°34' E 139°52'0 0.1
2018-Apr-23 16:49N 35°34' E 139°52'0 0.0
2018-Apr-23 16:28N 35°34' E 139°52'0 0.0
2018-Apr-23 15:58N 35°34' E 139°52'0 0.1
2018-Apr-23 15:25N 35°34' E 139°51'0 0.0
2018-Apr-23 14:58N 35°34' E 139°51'0 0.0
2018-Apr-23 14:28N 35°34' E 139°51'0 0.0
2018-Apr-23 13:53N 35°34' E 139°51'0 0.4
2018-Apr-23 13:30N 35°34' E 139°51'4 7.8
2018-Apr-23 13:00N 35°31' E 139°53'713.2
2018-Apr-23 12:30N 35°26' E 139°48'510.3
2018-Apr-23 12:01N 35°27' E 139°41'1 1.4
2018-Apr-23 11:30N 35°26' E 139°41'0 0.0
2018-Apr-23 11:00N 35°26' E 139°41'0 0.0
2018-Apr-23 10:29N 35°26' E 139°41'0 0.0
2018-Apr-23 09:59N 35°26' E 139°41'0 0.0
2018-Apr-23 09:29N 35°26' E 139°41'0 0.0
2018-Apr-23 08:56N 35°26' E 139°41'0 0.0
2018-Apr-23 08:29N 35°26' E 139°41'0 0.0
2018-Apr-23 07:59N 35°26' E 139°41'0 0.0
2018-Apr-23 07:26N 35°26' E 139°41'0 0.0
2018-Apr-23 06:59N 35°26' E 139°41'0 0.0
2018-Apr-23 06:29N 35°26' E 139°41'0 0.0
2018-Apr-23 05:59N 35°26' E 139°41'0 0.0
2018-Apr-23 05:29N 35°26' E 139°41'0 0.0
2018-Apr-23 04:59N 35°26' E 139°41'0 0.0
2018-Apr-23 04:29N 35°26' E 139°41'1 1.0
2018-Apr-23 04:00N 35°27' E 139°41'2 4.0
2018-Apr-23 03:30N 35°25' E 139°42'1 1.6
2018-Apr-23 03:00N 35°24' E 139°42'4 7.3
2018-Apr-23 02:30N 35°20' E 139°43'510.6
2018-Apr-23 02:00N 35°16' E 139°46'611.6
2018-Apr-23 01:30N 35°10' E 139°47'511.0
2018-Apr-23 01:00N 35°05' E 139°45'611.7
2018-Apr-23 00:30N 35°02' E 139°39'612.9
2018-Apr-23 00:00N 35°02' E 139°31'611.1
2018-Apr-22 23:30N 35°01' E 139°24'2 4.8
2018-Apr-22 23:00N 35°00' E 139°21'1 1.1
2018-Apr-22 22:30N 35°01' E 139°22'1 1.3
2018-Apr-22 22:00N 35°01' E 139°22'1 1.4
2018-Apr-22 21:30N 35°02' E 139°23'1 1.4
2018-Apr-22 21:00N 35°02' E 139°24'0 0.9
2018-Apr-22 20:30N 35°02' E 139°24'1 2.9
2018-Apr-22 20:00N 35°01' E 139°24'611.4
2018-Apr-22 19:30N 34°56' E 139°22'1014.9
2018-Apr-22 18:50N 34°47' E 139°16'915.8
2018-Apr-22 18:17N 34°40' E 139°09'515.7
2018-Apr-22 17:56N 34°37' E 139°04'715.6
2018-Apr-22 17:30N 34°32' E 138°58'1014.9
2018-Apr-22 16:52N 34°31' E 138°47'614.3
2018-Apr-22 16:29N 34°32' E 138°40'714.2
2018-Apr-22 16:00N 34°32' E 138°32'714.0
2018-Apr-22 15:29N 34°32' E 138°23'713.8
2018-Apr-22 14:57N 34°31' E 138°14'714.6
2018-Apr-22 14:30N 34°31' E 138°06'814.5
2018-Apr-22 13:58N 34°31' E 137°57'714.8
2018-Apr-22 13:29N 34°31' E 137°48'714.5
2018-Apr-22 13:00N 34°31' E 137°40'714.1
2018-Apr-22 12:29N 34°31' E 137°31'714.6
2018-Apr-22 11:59N 34°31' E 137°22'914.6
2018-Apr-22 11:21N 34°31' E 137°11'514.3
2018-Apr-22 11:00N 34°32' E 137°05'611.6
2018-Apr-22 10:28N 34°35' E 136°58'611.7
2018-Apr-22 09:58N 34°38' E 136°53'613.1
2018-Apr-22 09:30N 34°43' E 136°48'613.3
2018-Apr-22 09:00N 34°50' E 136°46'713.5
2018-Apr-22 08:30N 34°56' E 136°46'510.9
2018-Apr-22 08:00N 35°01' E 136°48'0 0.5
2018-Apr-22 07:30N 35°02' E 136°48'0 0.0
2018-Apr-22 06:56N 35°02' E 136°48'0 0.0
2018-Apr-22 06:26N 35°01' E 136°48'0 0.0
2018-Apr-22 05:56N 35°02' E 136°48'0 0.0
2018-Apr-22 05:26N 35°02' E 136°48'0 0.0
2018-Apr-22 04:56N 35°02' E 136°48'0 0.0
2018-Apr-22 04:26N 35°02' E 136°48'0 0.4
2018-Apr-22 04:00N 35°01' E 136°48'2 3.6
2018-Apr-22 03:30N 34°60' E 136°47'612.5
2018-Apr-22 03:01N 34°53' E 136°46'612.0
2018-Apr-22 02:30N 34°47' E 136°47'612.0
2018-Apr-22 02:00N 34°42' E 136°50'612.0
2018-Apr-22 01:29N 34°38' E 136°55'612.2
2018-Apr-22 01:00N 34°34' E 137°00'612.5
2018-Apr-22 00:29N 34°27' E 137°02'1115.3
2018-Apr-21 23:47N 34°17' E 137°00'515.9
2018-Apr-21 23:28N 34°12' E 136°58'716.0
2018-Apr-21 23:00N 34°06' E 136°52'815.6
2018-Apr-21 22:30N 34°01' E 136°45'815.6
2018-Apr-21 21:59N 33°56' E 136°38'815.7
2018-Apr-21 21:30N 33°51' E 136°31'916.0
2018-Apr-21 20:57N 33°45' E 136°23'5115.4
2018-Apr-21 17:40N 33°13' E 135°36'515.7
2018-Apr-21 17:22N 33°11' E 135°31'615.6
2018-Apr-21 16:57N 33°08' E 135°24'815.8
2018-Apr-21 16:26N 33°04' E 135°16'1517.3
2018-Apr-21 15:35N 32°56' E 135°01'318.9
2018-Apr-21 15:27N 32°55' E 134°58'919.3
2018-Apr-21 14:57N 32°50' E 134°48'919.5
2018-Apr-21 14:29N 32°45' E 134°39'46015.8
2018-Apr-20 09:28N 31°00' E 125°52'816.7
2018-Apr-20 08:58N 31°01' E 125°42'817.0
2018-Apr-20 08:28N 31°01' E 125°33'15516.0
2018-Apr-19 22:49N 31°05' E 122°32'1413.7
2018-Apr-19 21:48N 31°07' E 122°16'1119.7
2018-Apr-19 21:14N 31°14' E 122°05'4 7.3
2018-Apr-19 20:38N 31°15' E 122°00'214.5
2018-Apr-19 20:29N 31°15' E 121°58'714.3
2018-Apr-19 19:59N 31°17' E 121°50'1510.5
2018-Apr-19 18:35N 31°23' E 121°34'1 9.8
2018-Apr-19 18:30N 31°24' E 121°33'5 8.6
2018-Apr-19 17:58N 31°26' E 121°29'610.8
2018-Apr-19 17:25N 31°31' E 121°24'3 7.7
2018-Apr-19 17:00N 31°32' E 121°21'611.6
2018-Apr-19 16:31N 31°37' E 121°16'3 5.6
2018-Apr-19 16:00N 31°38' E 121°14'0 0.0
2018-Apr-19 15:28N 31°38' E 121°14'0 0.0
2018-Apr-19 14:58N 31°38' E 121°14'0 0.0
2018-Apr-19 14:28N 31°38' E 121°14'0 0.0
2018-Apr-19 13:58N 31°38' E 121°14'0 0.0
2018-Apr-19 13:25N 31°38' E 121°14'0 0.0
2018-Apr-19 12:58N 31°38' E 121°14'0 0.0
2018-Apr-19 12:28N 31°38' E 121°14'0 0.0
2018-Apr-19 11:58N 31°38' E 121°14'0 0.0
2018-Apr-19 11:28N 31°38' E 121°14'0 0.0
2018-Apr-19 10:58N 31°38' E 121°14'0 0.0
2018-Apr-19 10:25N 31°38' E 121°14'0 0.0
2018-Apr-19 09:58N 31°38' E 121°14'0 0.0
2018-Apr-19 09:28N 31°38' E 121°14'0 0.0
2018-Apr-19 08:58N 31°38' E 121°14'0 0.0
2018-Apr-19 08:28N 31°38' E 121°14'0 0.0
2018-Apr-19 07:58N 31°38' E 121°14'0 0.0
2018-Apr-19 07:28N 31°38' E 121°14'0 0.0
2018-Apr-19 06:58N 31°38' E 121°14'0 0.0
2018-Apr-19 06:28N 31°38' E 121°14'0 0.0
2018-Apr-19 05:58N 31°38' E 121°14'0 0.0
2018-Apr-19 05:28N 31°38' E 121°14'0 0.0
2018-Apr-19 04:58N 31°38' E 121°14'0 0.0
2018-Apr-19 04:28N 31°38' E 121°14'0 0.0
2018-Apr-19 03:58N 31°38' E 121°14'0 0.0
2018-Apr-19 03:28N 31°38' E 121°14'0 0.0
2018-Apr-19 02:58N 31°38' E 121°14'0 0.0
2018-Apr-19 02:28N 31°38' E 121°14'0 0.0
2018-Apr-19 01:58N 31°38' E 121°14'0 0.0
2018-Apr-19 01:28N 31°38' E 121°14'0 0.0
2018-Apr-19 00:58N 31°38' E 121°14'0 0.0
2018-Apr-19 00:28N 31°38' E 121°14'0 0.0
2018-Apr-18 23:58N 31°38' E 121°14'0 0.0
2018-Apr-18 23:28N 31°38' E 121°14'0 0.0
2018-Apr-18 22:58N 31°38' E 121°14'0 0.0
2018-Apr-18 22:28N 31°38' E 121°14'0 0.0
2018-Apr-18 21:58N 31°38' E 121°14'0 0.0
2018-Apr-18 21:28N 31°38' E 121°14'0 0.0
2018-Apr-18 20:58N 31°38' E 121°14'1 2.7
2018-Apr-18 20:28N 31°38' E 121°15'0 0.2
2018-Apr-18 20:00N 31°38' E 121°15'2 3.2
2018-Apr-18 19:30N 31°37' E 121°16'713.2
2018-Apr-18 19:00N 31°32' E 121°22'611.9
2018-Apr-18 18:30N 31°28' E 121°27'510.6
2018-Apr-18 18:00N 31°25' E 121°32'510.1
2018-Apr-18 17:29N 31°22' E 121°37'910.9
2018-Apr-18 16:39N 31°16' E 121°45'214.0
2018-Apr-18 16:29N 31°15' E 121°47'814.5
2018-Apr-18 15:58N 31°09' E 121°53'713.4
2018-Apr-18 15:25N 31°05' E 122°00'410.9
2018-Apr-18 15:00N 31°04' E 122°05'510.6
2018-Apr-18 14:30N 31°03' E 122°11'4 8.3
2018-Apr-18 14:00N 31°03' E 122°16'4 7.8
2018-Apr-18 13:30N 31°02' E 122°21'3 7.0
2018-Apr-18 13:00N 31°01' E 122°25'814.8
2018-Apr-18 12:29N 30°60' E 122°34'3 6.8
2018-Apr-18 12:00N 30°59' E 122°37'611.8
2018-Apr-18 11:28N 30°57' E 122°45'612.4
2018-Apr-18 10:59N 30°59' E 122°51'714.1
2018-Apr-18 10:28N 31°03' E 122°58'714.6
2018-Apr-18 10:00N 31°06' E 123°05'714.2
2018-Apr-18 09:30N 31°09' E 123°13'1014.3
2018-Apr-18 08:50N 31°15' E 123°22'412.3
2018-Apr-18 08:30N 31°16' E 123°26'713.0
2018-Apr-18 08:00N 31°19' E 123°33'813.3
2018-Apr-18 07:26N 31°22' E 123°41'2513.0
2018-Apr-18 05:32N 31°34' E 124°07'112.7
2018-Apr-18 05:26N 31°34' E 124°08'1113.3
2018-Apr-18 04:35N 31°38' E 124°21'413.6
2018-Apr-18 04:16N 31°40' E 124°25'414.0
2018-Apr-18 04:00N 31°41' E 124°29'714.5
2018-Apr-18 03:30N 31°44' E 124°37'816.0
2018-Apr-18 03:00N 31°47' E 124°46'27315.9
2018-Apr-17 09:47N 33°55' E 129°34'1016.5
2018-Apr-17 09:10N 33°56' E 129°45'816.6
2018-Apr-17 08:42N 33°57' E 129°55'316.4
2018-Apr-17 08:30N 33°57' E 129°59'816.5
2018-Apr-17 08:00N 33°59' E 130°09'816.2
2018-Apr-17 07:31N 33°60' E 130°18'815.8
2018-Apr-17 07:00N 34°01' E 130°28'815.5
2018-Apr-17 06:31N 34°02' E 130°37'815.8
2018-Apr-17 06:00N 34°02' E 130°47'613.1
2018-Apr-17 05:30N 33°58' E 130°53'4 7.9
2018-Apr-17 05:00N 33°55' E 130°56'510.9
2018-Apr-17 04:30N 33°59' E 131°01'714.5
2018-Apr-17 04:00N 33°54' E 131°08'714.4
2018-Apr-17 03:30N 33°51' E 131°16'815.0
2018-Apr-17 03:00N 33°50' E 131°24'815.1
2018-Apr-17 02:30N 33°48' E 131°33'815.1
2018-Apr-17 02:00N 33°46' E 131°42'815.4
2018-Apr-17 01:31N 33°45' E 131°51'815.7
2018-Apr-17 01:00N 33°43' E 132°00'815.3
2018-Apr-17 00:30N 33°43' E 132°10'815.7
2018-Apr-17 00:00N 33°45' E 132°19'915.4
2018-Apr-16 23:27N 33°48' E 132°28'714.9
2018-Apr-16 23:01N 33°52' E 132°35'714.6
2018-Apr-16 22:31N 33°57' E 132°41'815.0
2018-Apr-16 22:00N 34°03' E 132°47'6314.1
2018-Apr-16 17:30N 34°25' E 133°59'712.9
2018-Apr-16 16:59N 34°27' E 134°07'713.9
2018-Apr-16 16:30N 34°24' E 134°14'714.9
2018-Apr-16 16:00N 34°25' E 134°23'816.1
2018-Apr-16 15:30N 34°28' E 134°32'816.1
2018-Apr-16 15:00N 34°31' E 134°41'816.7
2018-Apr-16 14:30N 34°35' E 134°50'816.5
2018-Apr-16 14:00N 34°38' E 134°60'816.2
2018-Apr-16 13:30N 34°36' E 135°09'815.8
2018-Apr-16 13:00N 34°36' E 135°19'510.3
2018-Apr-16 12:30N 34°39' E 135°24'0 0.3
2018-Apr-16 12:00N 34°39' E 135°24'0 0.0
2018-Apr-16 11:26N 34°39' E 135°24'0 0.0
2018-Apr-16 10:56N 34°39' E 135°24'0 0.0
2018-Apr-16 10:29N 34°39' E 135°24'0 0.0
2018-Apr-16 09:59N 34°39' E 135°24'0 0.0
2018-Apr-16 09:29N 34°39' E 135°24'0 0.0
2018-Apr-16 08:56N 34°39' E 135°24'0 0.0
2018-Apr-16 08:29N 34°39' E 135°24'0 0.0
2018-Apr-16 07:59N 34°39' E 135°24'0 0.0
2018-Apr-16 07:29N 34°39' E 135°24'0 0.1
2018-Apr-16 07:01N 34°39' E 135°24'3 5.3
2018-Apr-16 06:30N 34°37' E 135°22'5 9.8
2018-Apr-16 06:00N 34°39' E 135°16'1 2.7
2018-Apr-16 05:30N 34°39' E 135°15'0 0.0
2018-Apr-16 05:00N 34°39' E 135°15'0 0.0
2018-Apr-16 04:30N 34°39' E 135°15'0 0.0
2018-Apr-16 04:00N 34°39' E 135°15'0 0.0
2018-Apr-16 03:30N 34°39' E 135°15'0 0.0
2018-Apr-16 03:00N 34°39' E 135°15'0 0.0
2018-Apr-16 02:30N 34°39' E 135°15'0 0.0
2018-Apr-16 02:00N 34°39' E 135°15'1 1.2
2018-Apr-16 01:30N 34°39' E 135°15'4 8.1
2018-Apr-16 01:01N 34°35' E 135°15'815.5
2018-Apr-16 00:30N 34°29' E 135°10'815.8
2018-Apr-16 00:00N 34°23' E 135°04'815.7
2018-Apr-15 23:30N 34°16' E 134°59'815.6
2018-Apr-15 23:01N 34°08' E 134°59'815.7
2018-Apr-15 22:30N 34°00' E 134°59'815.3
2018-Apr-15 22:01N 33°52' E 134°59'815.0
2018-Apr-15 21:29N 33°46' E 135°05'2215.2
2018-Apr-15 20:04N 33°31' E 135°24'4713.5
2018-Apr-15 16:32N 33°44' E 136°19'116.7
2018-Apr-15 16:30N 33°44' E 136°19'816.3
2018-Apr-15 16:00N 33°50' E 136°27'916.2
2018-Apr-15 15:27N 33°56' E 136°34'816.1
2018-Apr-15 14:58N 34°01' E 136°41'715.7
2018-Apr-15 14:30N 34°06' E 136°48'1515.0
2018-Apr-15 13:31N 34°17' E 137°00'015.7
2018-Apr-15 13:30N 34°17' E 137°00'1116.2
2018-Apr-15 12:50N 34°27' E 137°02'1214.1
2018-Apr-15 12:00N 34°37' E 136°54'816.7
2018-Apr-15 11:30N 34°43' E 136°48'816.7
2018-Apr-15 11:00N 34°52' E 136°46'815.6
2018-Apr-15 10:30N 34°59' E 136°47'2 4.6
2018-Apr-15 10:00N 35°02' E 136°47'0 0.0
2018-Apr-15 09:30N 35°02' E 136°47'0 0.0
2018-Apr-15 08:58N 35°02' E 136°47'0 0.0
2018-Apr-15 08:25N 35°02' E 136°47'0 0.0
2018-Apr-15 07:55N 35°02' E 136°47'0 0.0
2018-Apr-15 07:25N 35°02' E 136°47'0 0.0
2018-Apr-15 06:55N 35°02' E 136°47'0 0.0
2018-Apr-15 06:28N 35°02' E 136°47'0 0.0
2018-Apr-15 05:55N 35°02' E 136°47'0 0.0
2018-Apr-15 05:13N 35°02' E 136°47'0 0.0
2018-Apr-15 04:55N 35°02' E 136°47'0 0.0
2018-Apr-15 04:25N 35°02' E 136°47'0 0.0
2018-Apr-15 03:57N 35°02' E 136°47'1 1.3
2018-Apr-15 03:30N 35°01' E 136°48'3 5.1
2018-Apr-15 03:00N 34°59' E 136°47'612.2
2018-Apr-15 02:30N 34°53' E 136°47'714.2
2018-Apr-15 02:00N 34°46' E 136°48'714.0
2018-Apr-15 01:30N 34°40' E 136°52'713.3
2018-Apr-15 01:00N 34°35' E 136°58'611.6
2018-Apr-15 00:30N 34°32' E 137°04'510.4
2018-Apr-15 00:00N 34°28' E 137°08'611.3
2018-Apr-14 23:29N 34°30' E 137°14'611.0
2018-Apr-14 22:58N 34°32' E 137°20'16 6.0
2018-Apr-14 20:23N 34°30' E 137°39'410.3
2018-Apr-14 19:59N 34°30' E 137°44'610.5
2018-Apr-14 19:26N 34°32' E 137°51'511.3
2018-Apr-14 19:00N 34°32' E 137°57'612.3
2018-Apr-14 18:30N 34°32' E 138°04'812.3
2018-Apr-14 17:51N 34°32' E 138°14'513.4
2018-Apr-14 17:29N 34°32' E 138°20'613.6
2018-Apr-14 17:00N 34°32' E 138°28'713.7
2018-Apr-14 16:30N 34°32' E 138°36'813.5
2018-Apr-14 15:56N 34°32' E 138°45'613.7
2018-Apr-14 15:30N 34°32' E 138°52'713.5
2018-Apr-14 15:00N 34°35' E 139°00'714.4
2018-Apr-14 14:29N 34°40' E 139°06'713.9
2018-Apr-14 14:00N 34°45' E 139°12'813.8
2018-Apr-14 13:27N 34°50' E 139°18'613.5
2018-Apr-14 12:59N 34°55' E 139°24'713.7
2018-Apr-14 12:30N 34°59' E 139°30'  

Dump ship's entire track history